Kennebec, North Carolina
Current Conditions -  °F | °C
As of 8:15 PM on Friday 31 Oct 2014 (Local Time) from KHRJ Reporting Station
Clear Clear  
Wind Chill: 53°   Ceiling: Unl
Heat Index: 53°   Visibility: 10mi
Dew Point: 45°   Wind: 3mph
Humidity: 74%   Direction: 30°NNE
Pressure: 29.81"   Gusts: NA
Location:  35.5718°N, 78.7112°W
Report Text: KHRJ 010015Z AUTO 03003KT 10SM CLR 12/07 A2981 RMK AO2 T01150070
Loading
Personal Weather Stations






























Interactive Weather Map
Tropical Storm Tracking
New forecast layout! Learn more

10-Day Weather Forecast

Advertisements
Track Severe Weather on mobile